sensor_id;sensor_type;location;lat;lon;timestamp;P1;durP1;ratioP1;P2;durP2;ratioP2
19095;SDS011;9680;52.520;13.332;2023-02-01T00:00:31;18.77;;;2.50;;
19095;SDS011;9680;52.520;13.332;2023-02-01T00:03:00;12.80;;;1.83;;
19095;SDS011;9680;52.520;13.332;2023-02-01T00:05:27;11.33;;;2.20;;
19095;SDS011;9680;52.520;13.332;2023-02-01T00:07:54;17.63;;;1.90;;
19095;SDS011;9680;52.520;13.332;2023-02-01T00:10:21;12.80;;;2.50;;
19095;SDS011;9680;52.520;13.332;2023-02-01T00:12:48;17.90;;;2.17;;
19095;SDS011;9680;52.520;13.332;2023-02-01T00:15:16;16.50;;;2.10;;
19095;SDS011;9680;52.520;13.332;2023-02-01T00:17:43;24.33;;;2.83;;
19095;SDS011;9680;52.520;13.332;2023-02-01T00:20:10;18.87;;;2.30;;
19095;SDS011;9680;52.520;13.332;2023-02-01T00:22:38;17.03;;;2.50;;
19095;SDS011;9680;52.520;13.332;2023-02-01T00:25:05;20.03;;;2.43;;
19095;SDS011;9680;52.520;13.332;2023-02-01T00:27:34;15.17;;;2.00;;
19095;SDS011;9680;52.520;13.332;2023-02-01T00:30:01;10.13;;;1.60;;
19095;SDS011;9680;52.520;13.332;2023-02-01T00:32:29;8.93;;;1.43;;
19095;SDS011;9680;52.520;13.332;2023-02-01T00:34:57;9.70;;;1.60;;
19095;SDS011;9680;52.520;13.332;2023-02-01T00:37:24;13.30;;;2.43;;
19095;SDS011;9680;52.520;13.332;2023-02-01T00:39:51;10.90;;;1.47;;
19095;SDS011;9680;52.520;13.332;2023-02-01T00:42:20;11.80;;;2.23;;
19095;SDS011;9680;52.520;13.332;2023-02-01T00:44:47;11.73;;;1.67;;
19095;SDS011;9680;52.520;13.332;2023-02-01T00:47:14;14.47;;;2.20;;
19095;SDS011;9680;52.520;13.332;2023-02-01T00:49:42;10.43;;;1.33;;
19095;SDS011;9680;52.520;13.332;2023-02-01T00:52:10;13.80;;;1.70;;
19095;SDS011;9680;52.520;13.332;2023-02-01T00:54:37;7.70;;;1.60;;
19095;SDS011;9680;52.520;13.332;2023-02-01T00:57:04;6.33;;;1.43;;
19095;SDS011;9680;52.520;13.332;2023-02-01T00:59:31;11.93;;;1.87;;
19095;SDS011;9680;52.520;13.332;2023-02-01T01:01:58;12.43;;;1.70;;
19095;SDS011;9680;52.520;13.332;2023-02-01T01:04:24;10.47;;;1.57;;
19095;SDS011;9680;52.520;13.332;2023-02-01T01:06:53;13.77;;;2.00;;
19095;SDS011;9680;52.520;13.332;2023-02-01T01:09:20;18.40;;;2.13;;
19095;SDS011;9680;52.520;13.332;2023-02-01T01:11:47;11.33;;;1.70;;
19095;SDS011;9680;52.520;13.332;2023-02-01T01:14:16;10.23;;;2.10;;
19095;SDS011;9680;52.520;13.332;2023-02-01T01:16:46;9.17;;;1.67;;
19095;SDS011;9680;52.520;13.332;2023-02-01T01:19:15;13.47;;;1.67;;
19095;SDS011;9680;52.520;13.332;2023-02-01T01:21:42;9.93;;;1.53;;
19095;SDS011;9680;52.520;13.332;2023-02-01T01:24:11;23.33;;;2.03;;
19095;SDS011;9680;52.520;13.332;2023-02-01T01:26:38;16.10;;;2.13;;
19095;SDS011;9680;52.520;13.332;2023-02-01T01:29:05;16.47;;;2.00;;
19095;SDS011;9680;52.520;13.332;2023-02-01T01:31:32;14.37;;;2.03;;
19095;SDS011;9680;52.520;13.332;2023-02-01T01:33:59;12.23;;;1.73;;
19095;SDS011;9680;52.520;13.332;2023-02-01T01:36:28;11.33;;;2.00;;
19095;SDS011;9680;52.520;13.332;2023-02-01T01:38:56;8.47;;;2.00;;
19095;SDS011;9680;52.520;13.332;2023-02-01T01:41:25;15.87;;;1.83;;
19095;SDS011;9680;52.520;13.332;2023-02-01T01:43:59;15.10;;;2.00;;
19095;SDS011;9680;52.520;13.332;2023-02-01T01:46:31;13.37;;;1.60;;
19095;SDS011;9680;52.520;13.332;2023-02-01T01:49:01;12.97;;;2.00;;
19095;SDS011;9680;52.520;13.332;2023-02-01T01:51:35;9.80;;;1.67;;
19095;SDS011;9680;52.520;13.332;2023-02-01T01:54:08;19.30;;;2.37;;
19095;SDS011;9680;52.520;13.332;2023-02-01T01:56:43;16.23;;;2.47;;
19095;SDS011;9680;52.520;13.332;2023-02-01T01:59:13;19.07;;;2.30;;
19095;SDS011;9680;52.520;13.332;2023-02-01T02:01:41;13.83;;;1.70;;
19095;SDS011;9680;52.520;13.332;2023-02-01T02:04:08;15.83;;;2.27;;
19095;SDS011;9680;52.520;13.332;2023-02-01T02:06:38;13.07;;;1.83;;
19095;SDS011;9680;52.520;13.332;2023-02-01T02:09:13;15.73;;;1.90;;
19095;SDS011;9680;52.520;13.332;2023-02-01T02:11:40;12.73;;;2.03;;
19095;SDS011;9680;52.520;13.332;2023-02-01T02:14:09;13.57;;;1.73;;
19095;SDS011;9680;52.520;13.332;2023-02-01T02:16:40;11.80;;;1.70;;
19095;SDS011;9680;52.520;13.332;2023-02-01T02:25:46;13.70;;;1.70;;
19095;SDS011;9680;52.520;13.332;2023-02-01T02:28:37;15.60;;;1.77;;
19095;SDS011;9680;52.520;13.332;2023-02-01T02:31:36;16.37;;;1.97;;
19095;SDS011;9680;52.520;13.332;2023-02-01T02:34:17;14.90;;;2.00;;
19095;SDS011;9680;52.520;13.332;2023-02-01T02:36:51;14.97;;;1.57;;
19095;SDS011;9680;52.520;13.332;2023-02-01T02:39:34;12.73;;;1.73;;
19095;SDS011;9680;52.520;13.332;2023-02-01T02:42:10;31.17;;;2.10;;
19095;SDS011;9680;52.520;13.332;2023-02-01T02:44:59;10.87;;;1.93;;
19095;SDS011;9680;52.520;13.332;2023-02-01T02:47:49;16.30;;;2.57;;
19095;SDS011;9680;52.520;13.332;2023-02-01T02:50:23;9.27;;;1.67;;
19095;SDS011;9680;52.520;13.332;2023-02-01T02:53:13;18.43;;;1.97;;
19095;SDS011;9680;52.520;13.332;2023-02-01T02:56:00;19.60;;;2.70;;
19095;SDS011;9680;52.520;13.332;2023-02-01T02:58:50;11.27;;;1.80;;
19095;SDS011;9680;52.520;13.332;2023-02-01T03:01:35;13.07;;;2.13;;
19095;SDS011;9680;52.520;13.332;2023-02-01T03:04:21;16.50;;;2.33;;
19095;SDS011;9680;52.520;13.332;2023-02-01T03:06:50;18.27;;;2.27;;
19095;SDS011;9680;52.520;13.332;2023-02-01T03:09:19;14.43;;;2.10;;
19095;SDS011;9680;52.520;13.332;2023-02-01T03:11:52;12.87;;;1.97;;
19095;SDS011;9680;52.520;13.332;2023-02-01T03:14:43;14.33;;;2.03;;
19095;SDS011;9680;52.520;13.332;2023-02-01T03:17:14;13.83;;;2.40;;
19095;SDS011;9680;52.520;13.332;2023-02-01T03:19:48;14.87;;;1.97;;
19095;SDS011;9680;52.520;13.332;2023-02-01T03:22:21;20.03;;;2.07;;
19095;SDS011;9680;52.520;13.332;2023-02-01T03:24:52;16.20;;;2.30;;
19095;SDS011;9680;52.520;13.332;2023-02-01T03:27:26;14.33;;;1.77;;
19095;SDS011;9680;52.520;13.332;2023-02-01T03:29:59;19.40;;;2.10;;
19095;SDS011;9680;52.520;13.332;2023-02-01T03:32:31;15.20;;;2.17;;
19095;SDS011;9680;52.520;13.332;2023-02-01T03:35:23;10.03;;;1.70;;
19095;SDS011;9680;52.520;13.332;2023-02-01T03:37:54;14.50;;;2.13;;
19095;SDS011;9680;52.520;13.332;2023-02-01T03:40:27;18.70;;;2.20;;
19095;SDS011;9680;52.520;13.332;2023-02-01T03:42:58;17.10;;;1.90;;
19095;SDS011;9680;52.520;13.332;2023-02-01T03:45:31;14.47;;;2.33;;
19095;SDS011;9680;52.520;13.332;2023-02-01T03:48:04;14.33;;;1.80;;
19095;SDS011;9680;52.520;13.332;2023-02-01T03:50:33;7.80;;;1.67;;
19095;SDS011;9680;52.520;13.332;2023-02-01T03:53:07;13.57;;;2.03;;
19095;SDS011;9680;52.520;13.332;2023-02-01T03:55:38;20.47;;;2.20;;
19095;SDS011;9680;52.520;13.332;2023-02-01T03:58:06;16.70;;;1.90;;
19095;SDS011;9680;52.520;13.332;2023-02-01T04:00:38;11.63;;;1.80;;
19095;SDS011;9680;52.520;13.332;2023-02-01T04:03:05;20.70;;;2.13;;
19095;SDS011;9680;52.520;13.332;2023-02-01T04:05:33;10.40;;;2.07;;
19095;SDS011;9680;52.520;13.332;2023-02-01T04:08:04;13.87;;;2.10;;
19095;SDS011;9680;52.520;13.332;2023-02-01T04:10:32;19.13;;;2.33;;
19095;SDS011;9680;52.520;13.332;2023-02-01T04:12:59;15.73;;;2.67;;
19095;SDS011;9680;52.520;13.332;2023-02-01T04:15:26;13.23;;;2.00;;
19095;SDS011;9680;52.520;13.332;2023-02-01T04:17:53;15.53;;;2.00;;
19095;SDS011;9680;52.520;13.332;2023-02-01T04:20:19;23.37;;;2.23;;
19095;SDS011;9680;52.520;13.332;2023-02-01T04:22:46;19.20;;;2.17;;
19095;SDS011;9680;52.520;13.332;2023-02-01T04:25:13;17.87;;;2.47;;
19095;SDS011;9680;52.520;13.332;2023-02-01T04:27:46;13.90;;;1.83;;
19095;SDS011;9680;52.520;13.332;2023-02-01T04:30:13;15.73;;;1.50;;
19095;SDS011;9680;52.520;13.332;2023-02-01T04:32:40;18.00;;;2.33;;
19095;SDS011;9680;52.520;13.332;2023-02-01T04:35:07;12.37;;;2.00;;
19095;SDS011;9680;52.520;13.332;2023-02-01T04:37:35;13.97;;;2.00;;
19095;SDS011;9680;52.520;13.332;2023-02-01T04:40:02;9.83;;;2.00;;
19095;SDS011;9680;52.520;13.332;2023-02-01T04:42:29;17.60;;;2.30;;
19095;SDS011;9680;52.520;13.332;2023-02-01T04:44:57;8.43;;;2.00;;
19095;SDS011;9680;52.520;13.332;2023-02-01T04:47:24;15.13;;;2.07;;
19095;SDS011;9680;52.520;13.332;2023-02-01T04:49:51;23.80;;;2.43;;
19095;SDS011;9680;52.520;13.332;2023-02-01T04:52:18;18.13;;;2.27;;
19095;SDS011;9680;52.520;13.332;2023-02-01T04:54:45;12.97;;;1.87;;
19095;SDS011;9680;52.520;13.332;2023-02-01T04:57:11;18.23;;;2.67;;
19095;SDS011;9680;52.520;13.332;2023-02-01T04:59:40;17.07;;;2.30;;
19095;SDS011;9680;52.520;13.332;2023-02-01T05:02:08;13.77;;;2.13;;
19095;SDS011;9680;52.520;13.332;2023-02-01T05:04:35;19.77;;;2.30;;
19095;SDS011;9680;52.520;13.332;2023-02-01T05:07:01;16.13;;;2.17;;
19095;SDS011;9680;52.520;13.332;2023-02-01T05:09:28;18.10;;;2.57;;
19095;SDS011;9680;52.520;13.332;2023-02-01T05:11:55;15.17;;;2.30;;
19095;SDS011;9680;52.520;13.332;2023-02-01T05:14:39;22.90;;;2.17;;
19095;SDS011;9680;52.520;13.332;2023-02-01T05:17:08;20.73;;;2.37;;
19095;SDS011;9680;52.520;13.332;2023-02-01T05:19:35;16.97;;;1.90;;
19095;SDS011;9680;52.520;13.332;2023-02-01T05:22:02;19.17;;;1.90;;
19095;SDS011;9680;52.520;13.332;2023-02-01T05:24:29;16.97;;;1.80;;
19095;SDS011;9680;52.520;13.332;2023-02-01T05:26:55;11.97;;;2.10;;
19095;SDS011;9680;52.520;13.332;2023-02-01T05:29:22;15.10;;;2.27;;
19095;SDS011;9680;52.520;13.332;2023-02-01T05:31:49;15.90;;;2.30;;
19095;SDS011;9680;52.520;13.332;2023-02-01T05:34:17;11.37;;;1.60;;
19095;SDS011;9680;52.520;13.332;2023-02-01T05:36:44;19.17;;;2.27;;
19095;SDS011;9680;52.520;13.332;2023-02-01T05:39:11;13.50;;;2.17;;
19095;SDS011;9680;52.520;13.332;2023-02-01T05:41:38;13.80;;;1.83;;
19095;SDS011;9680;52.520;13.332;2023-02-01T05:44:04;12.13;;;1.87;;
19095;SDS011;9680;52.520;13.332;2023-02-01T05:46:32;16.90;;;2.40;;
19095;SDS011;9680;52.520;13.332;2023-02-01T05:48:59;12.50;;;2.17;;
19095;SDS011;9680;52.520;13.332;2023-02-01T05:51:27;12.97;;;1.80;;
19095;SDS011;9680;52.520;13.332;2023-02-01T05:53:54;15.07;;;2.43;;
19095;SDS011;9680;52.520;13.332;2023-02-01T05:56:21;15.57;;;2.60;;
19095;SDS011;9680;52.520;13.332;2023-02-01T05:58:48;15.53;;;2.40;;
19095;SDS011;9680;52.520;13.332;2023-02-01T06:01:14;19.87;;;2.57;;
19095;SDS011;9680;52.520;13.332;2023-02-01T06:03:41;11.47;;;1.80;;
19095;SDS011;9680;52.520;13.332;2023-02-01T06:06:08;15.27;;;2.30;;
19095;SDS011;9680;52.520;13.332;2023-02-01T06:08:36;20.67;;;2.37;;
19095;SDS011;9680;52.520;13.332;2023-02-01T06:11:05;15.47;;;2.20;;
19095;SDS011;9680;52.520;13.332;2023-02-01T06:13:33;16.83;;;2.10;;
19095;SDS011;9680;52.520;13.332;2023-02-01T06:15:59;9.70;;;2.37;;
19095;SDS011;9680;52.520;13.332;2023-02-01T06:18:27;19.37;;;2.70;;
19095;SDS011;9680;52.520;13.332;2023-02-01T06:20:55;19.13;;;2.50;;
19095;SDS011;9680;52.520;13.332;2023-02-01T06:23:22;16.73;;;2.20;;
19095;SDS011;9680;52.520;13.332;2023-02-01T06:25:51;21.03;;;2.60;;
19095;SDS011;9680;52.520;13.332;2023-02-01T06:28:19;16.37;;;2.67;;
19095;SDS011;9680;52.520;13.332;2023-02-01T06:30:46;22.80;;;2.40;;
19095;SDS011;9680;52.520;13.332;2023-02-01T06:33:13;19.37;;;2.50;;
19095;SDS011;9680;52.520;13.332;2023-02-01T06:35:41;23.50;;;2.80;;
19095;SDS011;9680;52.520;13.332;2023-02-01T06:38:09;17.83;;;2.73;;
19095;SDS011;9680;52.520;13.332;2023-02-01T06:40:36;23.60;;;2.73;;
19095;SDS011;9680;52.520;13.332;2023-02-01T06:43:04;26.00;;;3.00;;
19095;SDS011;9680;52.520;13.332;2023-02-01T06:45:31;12.13;;;2.47;;
19095;SDS011;9680;52.520;13.332;2023-02-01T06:47:58;14.13;;;2.27;;
19095;SDS011;9680;52.520;13.332;2023-02-01T06:50:25;11.73;;;2.27;;
19095;SDS011;9680;52.520;13.332;2023-02-01T06:52:52;15.90;;;2.60;;
19095;SDS011;9680;52.520;13.332;2023-02-01T06:55:19;15.67;;;2.30;;
19095;SDS011;9680;52.520;13.332;2023-02-01T06:57:45;20.47;;;2.70;;
19095;SDS011;9680;52.520;13.332;2023-02-01T07:02:42;13.80;;;2.43;;
19095;SDS011;9680;52.520;13.332;2023-02-01T07:05:09;17.90;;;2.70;;
19095;SDS011;9680;52.520;13.332;2023-02-01T07:07:36;12.10;;;2.40;;
19095;SDS011;9680;52.520;13.332;2023-02-01T07:10:02;13.27;;;2.20;;
19095;SDS011;9680;52.520;13.332;2023-02-01T07:12:30;9.03;;;2.33;;
19095;SDS011;9680;52.520;13.332;2023-02-01T07:14:56;19.57;;;2.97;;
19095;SDS011;9680;52.520;13.332;2023-02-01T07:17:24;12.03;;;2.47;;
19095;SDS011;9680;52.520;13.332;2023-02-01T07:19:52;12.30;;;2.57;;
19095;SDS011;9680;52.520;13.332;2023-02-01T07:22:18;15.77;;;3.00;;
19095;SDS011;9680;52.520;13.332;2023-02-01T07:24:45;13.07;;;2.10;;
19095;SDS011;9680;52.520;13.332;2023-02-01T07:27:12;11.33;;;2.10;;
19095;SDS011;9680;52.520;13.332;2023-02-01T07:29:38;22.33;;;2.67;;
19095;SDS011;9680;52.520;13.332;2023-02-01T07:32:05;14.37;;;2.53;;
19095;SDS011;9680;52.520;13.332;2023-02-01T07:34:33;14.43;;;2.50;;
19095;SDS011;9680;52.520;13.332;2023-02-01T07:37:00;19.80;;;2.67;;
19095;SDS011;9680;52.520;13.332;2023-02-01T07:39:28;9.23;;;2.57;;
19095;SDS011;9680;52.520;13.332;2023-02-01T07:41:57;11.53;;;2.77;;
19095;SDS011;9680;52.520;13.332;2023-02-01T07:44:24;10.20;;;2.47;;
19095;SDS011;9680;52.520;13.332;2023-02-01T07:46:50;14.47;;;2.37;;
19095;SDS011;9680;52.520;13.332;2023-02-01T07:49:17;15.40;;;3.00;;
19095;SDS011;9680;52.520;13.332;2023-02-01T07:51:45;13.73;;;2.50;;
19095;SDS011;9680;52.520;13.332;2023-02-01T07:54:12;11.33;;;2.50;;
19095;SDS011;9680;52.520;13.332;2023-02-01T07:56:39;16.27;;;3.10;;
19095;SDS011;9680;52.520;13.332;2023-02-01T07:59:05;9.30;;;2.73;;
19095;SDS011;9680;52.520;13.332;2023-02-01T08:01:33;13.00;;;2.50;;
19095;SDS011;9680;52.520;13.332;2023-02-01T08:04:00;9.13;;;2.30;;
19095;SDS011;9680;52.520;13.332;2023-02-01T08:06:29;13.33;;;2.60;;
19095;SDS011;9680;52.520;13.332;2023-02-01T08:08:58;11.10;;;2.37;;
19095;SDS011;9680;52.520;13.332;2023-02-01T08:11:25;14.70;;;2.80;;
19095;SDS011;9680;52.520;13.332;2023-02-01T08:13:53;13.23;;;2.80;;
19095;SDS011;9680;52.520;13.332;2023-02-01T08:16:21;10.63;;;2.53;;
19095;SDS011;9680;52.520;13.332;2023-02-01T08:18:48;12.80;;;2.53;;
19095;SDS011;9680;52.520;13.332;2023-02-01T08:21:17;18.73;;;2.53;;
19095;SDS011;9680;52.520;13.332;2023-02-01T08:23:45;13.37;;;2.67;;
19095;SDS011;9680;52.520;13.332;2023-02-01T08:26:17;7.80;;;2.27;;
19095;SDS011;9680;52.520;13.332;2023-02-01T08:28:46;13.97;;;2.90;;
19095;SDS011;9680;52.520;13.332;2023-02-01T08:31:16;12.53;;;2.63;;
19095;SDS011;9680;52.520;13.332;2023-02-01T08:33:47;9.33;;;2.57;;
19095;SDS011;9680;52.520;13.332;2023-02-01T08:36:19;13.50;;;2.60;;
19095;SDS011;9680;52.520;13.332;2023-02-01T08:38:47;10.80;;;2.40;;
19095;SDS011;9680;52.520;13.332;2023-02-01T08:41:16;10.03;;;2.47;;
19095;SDS011;9680;52.520;13.332;2023-02-01T08:43:44;8.00;;;2.87;;
19095;SDS011;9680;52.520;13.332;2023-02-01T08:46:11;15.00;;;3.00;;
19095;SDS011;9680;52.520;13.332;2023-02-01T08:48:38;9.03;;;2.30;;
19095;SDS011;9680;52.520;13.332;2023-02-01T08:51:06;8.57;;;2.10;;
19095;SDS011;9680;52.520;13.332;2023-02-01T08:53:33;12.13;;;2.43;;
19095;SDS011;9680;52.520;13.332;2023-02-01T08:56:01;5.37;;;1.93;;
19095;SDS011;9680;52.520;13.332;2023-02-01T08:58:29;7.10;;;2.30;;
19095;SDS011;9680;52.520;13.332;2023-02-01T09:00:56;10.77;;;2.23;;
19095;SDS011;9680;52.520;13.332;2023-02-01T09:03:23;7.17;;;2.27;;
19095;SDS011;9680;52.520;13.332;2023-02-01T09:05:50;5.87;;;2.10;;
19095;SDS011;9680;52.520;13.332;2023-02-01T09:08:17;5.40;;;1.70;;
19095;SDS011;9680;52.520;13.332;2023-02-01T09:10:45;5.87;;;2.10;;
19095;SDS011;9680;52.520;13.332;2023-02-01T09:13:12;6.97;;;1.87;;
19095;SDS011;9680;52.520;13.332;2023-02-01T09:15:40;6.77;;;2.00;;
19095;SDS011;9680;52.520;13.332;2023-02-01T09:18:06;7.83;;;2.00;;
19095;SDS011;9680;52.520;13.332;2023-02-01T09:20:33;4.70;;;1.70;;
19095;SDS011;9680;52.520;13.332;2023-02-01T09:23:00;4.27;;;1.50;;
19095;SDS011;9680;52.520;13.332;2023-02-01T09:25:27;4.53;;;1.90;;
19095;SDS011;9680;52.520;13.332;2023-02-01T09:27:54;4.97;;;1.63;;
19095;SDS011;9680;52.520;13.332;2023-02-01T09:30:20;5.20;;;1.30;;
19095;SDS011;9680;52.520;13.332;2023-02-01T09:32:49;7.00;;;1.27;;
19095;SDS011;9680;52.520;13.332;2023-02-01T09:35:15;2.23;;;1.20;;
19095;SDS011;9680;52.520;13.332;2023-02-01T09:37:42;5.63;;;1.27;;
19095;SDS011;9680;52.520;13.332;2023-02-01T09:40:10;4.33;;;1.00;;
19095;SDS011;9680;52.520;13.332;2023-02-01T09:42:45;6.63;;;1.10;;
19095;SDS011;9680;52.520;13.332;2023-02-01T09:45:21;4.13;;;1.07;;
19095;SDS011;9680;52.520;13.332;2023-02-01T09:47:58;2.10;;;0.80;;
19095;SDS011;9680;52.520;13.332;2023-02-01T09:50:30;3.43;;;1.00;;
19095;SDS011;9680;52.520;13.332;2023-02-01T09:53:02;2.77;;;0.83;;
19095;SDS011;9680;52.520;13.332;2023-02-01T09:55:34;1.50;;;0.77;;
19095;SDS011;9680;52.520;13.332;2023-02-01T09:58:05;3.70;;;0.90;;
19095;SDS011;9680;52.520;13.332;2023-02-01T10:00:35;5.50;;;1.00;;
19095;SDS011;9680;52.520;13.332;2023-02-01T10:03:05;5.03;;;1.07;;
19095;SDS011;9680;52.520;13.332;2023-02-01T10:05:49;7.27;;;1.23;;
19095;SDS011;9680;52.520;13.332;2023-02-01T10:08:33;3.07;;;1.00;;
19095;SDS011;9680;52.520;13.332;2023-02-01T10:11:21;5.93;;;0.97;;
19095;SDS011;9680;52.520;13.332;2023-02-01T10:14:14;4.27;;;1.10;;
19095;SDS011;9680;52.520;13.332;2023-02-01T10:16:56;2.63;;;0.70;;
19095;SDS011;9680;52.520;13.332;2023-02-01T10:19:35;4.10;;;0.97;;
19095;SDS011;9680;52.520;13.332;2023-02-01T10:22:13;3.60;;;1.03;;
19095;SDS011;9680;52.520;13.332;2023-02-01T10:24:49;7.27;;;1.17;;
19095;SDS011;9680;52.520;13.332;2023-02-01T10:27:25;3.37;;;1.00;;
19095;SDS011;9680;52.520;13.332;2023-02-01T10:29:57;6.53;;;1.00;;
19095;SDS011;9680;52.520;13.332;2023-02-01T10:32:30;4.43;;;1.00;;
19095;SDS011;9680;52.520;13.332;2023-02-01T10:35:02;3.97;;;1.00;;
19095;SDS011;9680;52.520;13.332;2023-02-01T10:37:35;5.70;;;1.10;;
19095;SDS011;9680;52.520;13.332;2023-02-01T10:40:05;5.23;;;1.00;;
19095;SDS011;9680;52.520;13.332;2023-02-01T10:42:41;7.27;;;1.40;;
19095;SDS011;9680;52.520;13.332;2023-02-01T10:45:12;5.17;;;0.90;;
19095;SDS011;9680;52.520;13.332;2023-02-01T10:47:41;4.33;;;0.90;;
19095;SDS011;9680;52.520;13.332;2023-02-01T10:50:12;2.57;;;0.80;;
19095;SDS011;9680;52.520;13.332;2023-02-01T10:52:47;2.40;;;0.90;;
19095;SDS011;9680;52.520;13.332;2023-02-01T10:55:32;5.33;;;1.13;;
19095;SDS011;9680;52.520;13.332;2023-02-01T10:58:03;3.87;;;0.80;;
19095;SDS011;9680;52.520;13.332;2023-02-01T11:00:34;6.37;;;1.57;;
19095;SDS011;9680;52.520;13.332;2023-02-01T11:06:13;2.53;;;0.90;;
19095;SDS011;9680;52.520;13.332;2023-02-01T11:08:47;9.40;;;1.33;;
19095;SDS011;9680;52.520;13.332;2023-02-01T11:11:15;4.70;;;1.10;;
19095;SDS011;9680;52.520;13.332;2023-02-01T11:13:42;7.83;;;1.30;;
19095;SDS011;9680;52.520;13.332;2023-02-01T11:16:11;6.07;;;1.20;;
19095;SDS011;9680;52.520;13.332;2023-02-01T11:18:40;6.67;;;1.20;;
19095;SDS011;9680;52.520;13.332;2023-02-01T11:21:08;9.10;;;1.40;;
19095;SDS011;9680;52.520;13.332;2023-02-01T11:23:41;5.30;;;1.43;;
19095;SDS011;9680;52.520;13.332;2023-02-01T11:26:11;6.37;;;1.60;;
19095;SDS011;9680;52.520;13.332;2023-02-01T11:28:43;6.20;;;1.40;;
19095;SDS011;9680;52.520;13.332;2023-02-01T11:31:17;5.70;;;1.40;;
19095;SDS011;9680;52.520;13.332;2023-02-01T11:33:47;4.40;;;1.70;;
19095;SDS011;9680;52.520;13.332;2023-02-01T11:36:20;6.67;;;1.40;;
19095;SDS011;9680;52.520;13.332;2023-02-01T11:38:54;9.87;;;1.60;;
19095;SDS011;9680;52.520;13.332;2023-02-01T11:41:40;9.57;;;1.63;;
19095;SDS011;9680;52.520;13.332;2023-02-01T11:44:15;7.67;;;1.40;;
19095;SDS011;9680;52.520;13.332;2023-02-01T11:46:46;7.40;;;1.60;;
19095;SDS011;9680;52.520;13.332;2023-02-01T11:49:14;5.43;;;1.53;;
19095;SDS011;9680;52.520;13.332;2023-02-01T11:51:49;7.17;;;1.23;;
19095;SDS011;9680;52.520;13.332;2023-02-01T11:54:33;8.63;;;1.90;;
19095;SDS011;9680;52.520;13.332;2023-02-01T11:57:13;8.60;;;1.50;;
19095;SDS011;9680;52.520;13.332;2023-02-01T12:00:01;5.90;;;1.30;;
19095;SDS011;9680;52.520;13.332;2023-02-01T12:02:47;7.97;;;1.50;;
19095;SDS011;9680;52.520;13.332;2023-02-01T12:05:27;6.07;;;1.37;;
19095;SDS011;9680;52.520;13.332;2023-02-01T12:08:10;7.43;;;1.43;;
19095;SDS011;9680;52.520;13.332;2023-02-01T12:10:53;10.27;;;1.53;;
19095;SDS011;9680;52.520;13.332;2023-02-01T12:13:34;5.93;;;1.00;;
19095;SDS011;9680;52.520;13.332;2023-02-01T12:16:11;10.57;;;1.20;;
19095;SDS011;9680;52.520;13.332;2023-02-01T12:22:07;5.73;;;1.10;;
19095;SDS011;9680;52.520;13.332;2023-02-01T12:24:54;5.00;;;1.23;;
19095;SDS011;9680;52.520;13.332;2023-02-01T12:27:39;11.43;;;1.47;;
19095;SDS011;9680;52.520;13.332;2023-02-01T12:30:21;6.43;;;1.27;;
19095;SDS011;9680;52.520;13.332;2023-02-01T12:33:07;8.63;;;1.53;;
19095;SDS011;9680;52.520;13.332;2023-02-01T12:35:44;5.30;;;1.20;;
19095;SDS011;9680;52.520;13.332;2023-02-01T12:38:26;8.10;;;1.70;;
19095;SDS011;9680;52.520;13.332;2023-02-01T12:41:07;4.73;;;1.20;;
19095;SDS011;9680;52.520;13.332;2023-02-01T12:43:46;9.50;;;1.37;;
19095;SDS011;9680;52.520;13.332;2023-02-01T12:46:21;9.77;;;1.43;;
19095;SDS011;9680;52.520;13.332;2023-02-01T12:48:54;6.87;;;1.50;;
19095;SDS011;9680;52.520;13.332;2023-02-01T12:51:26;6.37;;;1.50;;
19095;SDS011;9680;52.520;13.332;2023-02-01T12:53:57;10.67;;;1.60;;
19095;SDS011;9680;52.520;13.332;2023-02-01T12:56:29;9.60;;;1.83;;
19095;SDS011;9680;52.520;13.332;2023-02-01T12:59:03;5.70;;;1.40;;
19095;SDS011;9680;52.520;13.332;2023-02-01T13:01:33;7.53;;;1.50;;
19095;SDS011;9680;52.520;13.332;2023-02-01T13:04:04;11.63;;;1.70;;
19095;SDS011;9680;52.520;13.332;2023-02-01T13:06:37;8.27;;;1.50;;
19095;SDS011;9680;52.520;13.332;2023-02-01T13:09:09;9.13;;;1.33;;
19095;SDS011;9680;52.520;13.332;2023-02-01T13:11:45;9.73;;;1.40;;
19095;SDS011;9680;52.520;13.332;2023-02-01T13:14:19;9.63;;;1.50;;
19095;SDS011;9680;52.520;13.332;2023-02-01T13:16:53;5.20;;;1.40;;
19095;SDS011;9680;52.520;13.332;2023-02-01T13:19:27;9.90;;;1.20;;
19095;SDS011;9680;52.520;13.332;2023-02-01T13:21:57;7.93;;;1.53;;
19095;SDS011;9680;52.520;13.332;2023-02-01T13:24:30;5.50;;;1.37;;
19095;SDS011;9680;52.520;13.332;2023-02-01T13:27:00;9.77;;;1.87;;
19095;SDS011;9680;52.520;13.332;2023-02-01T13:29:29;8.27;;;1.63;;
19095;SDS011;9680;52.520;13.332;2023-02-01T13:32:02;9.07;;;1.20;;
19095;SDS011;9680;52.520;13.332;2023-02-01T13:37:43;6.60;;;1.33;;
19095;SDS011;9680;52.520;13.332;2023-02-01T13:40:30;5.93;;;1.20;;
19095;SDS011;9680;52.520;13.332;2023-02-01T13:43:05;4.60;;;1.20;;
19095;SDS011;9680;52.520;13.332;2023-02-01T13:45:42;9.20;;;1.70;;
19095;SDS011;9680;52.520;13.332;2023-02-01T13:48:17;10.73;;;1.50;;
19095;SDS011;9680;52.520;13.332;2023-02-01T13:50:53;11.67;;;1.80;;
19095;SDS011;9680;52.520;13.332;2023-02-01T13:53:23;13.33;;;2.00;;
19095;SDS011;9680;52.520;13.332;2023-02-01T13:55:56;5.47;;;1.43;;
19095;SDS011;9680;52.520;13.332;2023-02-01T13:58:32;9.60;;;1.50;;
19095;SDS011;9680;52.520;13.332;2023-02-01T14:04:03;6.57;;;1.60;;
19095;SDS011;9680;52.520;13.332;2023-02-01T14:06:37;8.63;;;1.50;;
19095;SDS011;9680;52.520;13.332;2023-02-01T14:09:13;7.77;;;1.47;;
19095;SDS011;9680;52.520;13.332;2023-02-01T14:11:43;6.60;;;1.40;;
19095;SDS011;9680;52.520;13.332;2023-02-01T14:23:22;11.73;;;2.00;;
19095;SDS011;9680;52.520;13.332;2023-02-01T14:26:11;12.77;;;1.97;;
19095;SDS011;9680;52.520;13.332;2023-02-01T14:28:43;10.77;;;2.03;;
19095;SDS011;9680;52.520;13.332;2023-02-01T14:34:11;8.30;;;2.27;;
19095;SDS011;9680;52.520;13.332;2023-02-01T14:36:43;8.10;;;2.17;;
19095;SDS011;9680;52.520;13.332;2023-02-01T14:39:24;7.37;;;2.00;;
19095;SDS011;9680;52.520;13.332;2023-02-01T14:41:56;10.53;;;2.23;;
19095;SDS011;9680;52.520;13.332;2023-02-01T14:44:28;10.53;;;2.10;;
19095;SDS011;9680;52.520;13.332;2023-02-01T14:47:04;15.00;;;2.27;;
19095;SDS011;9680;52.520;13.332;2023-02-01T14:49:41;6.70;;;1.70;;
19095;SDS011;9680;52.520;13.332;2023-02-01T14:52:17;7.67;;;1.80;;
19095;SDS011;9680;52.520;13.332;2023-02-01T14:54:49;9.90;;;2.20;;
19095;SDS011;9680;52.520;13.332;2023-02-01T14:57:19;12.43;;;1.97;;
19095;SDS011;9680;52.520;13.332;2023-02-01T14:59:58;13.53;;;2.17;;
19095;SDS011;9680;52.520;13.332;2023-02-01T15:02:31;6.63;;;1.60;;
19095;SDS011;9680;52.520;13.332;2023-02-01T15:05:16;11.13;;;2.07;;
19095;SDS011;9680;52.520;13.332;2023-02-01T15:07:50;9.57;;;1.63;;
19095;SDS011;9680;52.520;13.332;2023-02-01T15:10:18;7.90;;;1.97;;
19095;SDS011;9680;52.520;13.332;2023-02-01T15:12:47;6.63;;;1.57;;
19095;SDS011;9680;52.520;13.332;2023-02-01T15:15:16;5.20;;;1.53;;
19095;SDS011;9680;52.520;13.332;2023-02-01T15:17:52;3.63;;;1.40;;
19095;SDS011;9680;52.520;13.332;2023-02-01T15:20:22;5.70;;;1.63;;
19095;SDS011;9680;52.520;13.332;2023-02-01T15:22:54;5.40;;;1.70;;
19095;SDS011;9680;52.520;13.332;2023-02-01T15:25:23;7.73;;;1.83;;
19095;SDS011;9680;52.520;13.332;2023-02-01T15:27:52;5.67;;;1.30;;
19095;SDS011;9680;52.520;13.332;2023-02-01T15:30:21;3.10;;;1.33;;
19095;SDS011;9680;52.520;13.332;2023-02-01T15:32:50;3.13;;;1.40;;
19095;SDS011;9680;52.520;13.332;2023-02-01T15:35:39;3.30;;;1.20;;
19095;SDS011;9680;52.520;13.332;2023-02-01T15:41:11;5.27;;;1.20;;